createdAt,value
2023-03-29T00:31:16.145Z,5.70
2023-03-29T00:33:45.265Z,5.70
2023-03-29T00:36:14.753Z,5.80
2023-03-29T00:44:52.832Z,5.80
2023-03-29T00:47:27.425Z,5.70
2023-03-29T00:50:00.279Z,5.70
2023-03-29T00:55:01.595Z,5.70
2023-03-29T00:57:31.604Z,5.80
2023-03-29T01:02:35.082Z,5.80
2023-03-29T01:05:11.797Z,5.80
2023-03-29T01:08:02.669Z,5.80
2023-03-29T01:11:03.011Z,5.80
2023-03-29T01:13:48.296Z,5.70
2023-03-29T01:16:20.312Z,5.80
2023-03-29T01:21:34.241Z,5.80
2023-03-29T01:24:19.221Z,6.10
2023-03-29T01:27:15.755Z,5.70
2023-03-29T01:29:50.773Z,5.70
2023-03-29T01:32:48.060Z,3.80
2023-03-29T01:35:48.498Z,5.80
2023-03-29T01:46:04.603Z,5.60
2023-03-29T01:48:51.901Z,5.70
2023-03-29T01:51:44.785Z,5.70
2023-03-29T01:56:59.800Z,5.60
2023-03-29T01:59:33.225Z,5.70
2023-03-29T02:02:06.553Z,5.70
2023-03-29T02:04:39.885Z,5.60
2023-03-29T02:07:11.410Z,5.60
2023-03-29T02:09:42.077Z,5.60
2023-03-29T02:12:14.017Z,5.50
2023-03-29T02:17:26.942Z,5.60
2023-03-29T02:20:14.478Z,5.70
2023-03-29T02:22:53.262Z,5.60
2023-03-29T02:30:21.905Z,5.70
2023-03-29T02:33:14.037Z,5.70
2023-03-29T02:36:11.570Z,5.70
2023-03-29T02:41:10.778Z,5.80
2023-03-29T02:43:40.520Z,5.80
2023-03-29T02:46:09.480Z,5.60
2023-03-29T02:48:39.016Z,5.80
2023-03-29T02:51:18.011Z,5.80
2023-03-29T02:54:13.933Z,5.80
2023-03-29T02:57:01.822Z,5.40
2023-03-29T04:04:12.945Z,5.90
2023-03-29T05:01:23.643Z,7.30
2023-03-29T05:06:23.887Z,6.30
2023-03-29T05:08:55.290Z,6.20
2023-03-29T05:36:21.462Z,6.60
2023-03-29T05:43:48.344Z,6.60
2023-03-29T05:56:11.657Z,6.80
2023-03-29T06:01:15.408Z,6.90
2023-03-29T06:08:43.917Z,6.80
2023-03-29T06:11:14.416Z,6.60
2023-03-29T06:13:42.773Z,6.90
2023-03-29T06:16:13.544Z,6.90
2023-03-29T06:26:08.156Z,7.20
2023-03-29T06:28:36.623Z,7.60
2023-03-29T06:31:06.062Z,7.00
2023-03-29T06:38:35.361Z,7.50
2023-03-29T06:41:08.977Z,7.00
2023-03-29T06:58:38.339Z,7.10
2023-03-29T07:03:36.382Z,7.20
2023-03-29T07:06:10.118Z,7.40
2023-03-29T07:08:43.736Z,7.40
2023-03-29T07:11:18.737Z,7.50
2023-03-29T07:16:17.580Z,8.10
2023-03-29T07:26:12.288Z,7.90
2023-03-29T07:28:41.000Z,7.70
2023-03-29T07:31:13.464Z,7.70
2023-03-29T07:38:39.868Z,7.90
2023-03-29T07:41:09.116Z,7.80
2023-03-29T07:43:37.277Z,7.60
2023-03-29T07:46:07.265Z,7.80
2023-03-29T07:48:37.241Z,7.60
2023-03-29T07:56:03.111Z,7.70
2023-03-29T08:01:01.462Z,8.10
2023-03-29T08:13:24.814Z,8.50
2023-03-29T08:20:52.720Z,8.60
2023-03-29T08:28:18.028Z,8.90
2023-03-29T08:35:43.404Z,9.10
2023-03-29T08:38:12.614Z,8.80
2023-03-29T08:40:41.451Z,9.10
2023-03-29T08:48:29.661Z,9.30
2023-03-29T08:51:09.830Z,9.50
2023-03-29T08:53:56.564Z,9.60
2023-03-29T08:56:28.557Z,9.60
2023-03-29T08:58:58.905Z,9.70
2023-03-29T09:01:35.031Z,9.70
2023-03-29T09:04:30.628Z,8.90
2023-03-29T09:09:36.169Z,9.40
2023-03-29T09:12:27.822Z,9.60
2023-03-29T09:15:42.228Z,9.90
2023-03-29T09:18:20.334Z,10.10
2023-03-29T09:21:22.605Z,9.60
2023-03-29T09:24:10.168Z,9.20
2023-03-29T09:27:10.144Z,9.80
2023-03-29T09:30:14.498Z,9.70
2023-03-29T09:32:53.297Z,10.10
2023-03-29T09:35:34.694Z,10.00
2023-03-29T09:38:05.615Z,9.50
2023-03-29T09:40:57.830Z,9.50
2023-03-29T09:43:39.520Z,10.20
2023-03-29T09:46:32.235Z,10.00
2023-03-29T09:49:01.792Z,10.10
2023-03-29T09:51:32.315Z,10.10
2023-03-29T10:01:38.885Z,11.30
2023-03-29T10:04:11.696Z,10.80
2023-03-29T10:06:47.517Z,11.00
2023-03-29T10:09:24.822Z,10.80
2023-03-29T10:12:02.355Z,11.10
2023-03-29T10:14:46.494Z,11.30
2023-03-29T10:17:25.477Z,11.60
2023-03-29T10:20:04.535Z,11.60
2023-03-29T10:22:40.561Z,11.70
2023-03-29T10:25:18.282Z,11.70
2023-03-29T10:27:48.862Z,11.80
2023-03-29T10:30:24.537Z,12.10
2023-03-29T10:33:00.539Z,11.90
2023-03-29T10:35:41.655Z,12.00
2023-03-29T10:38:23.792Z,12.20
2023-03-29T10:40:54.012Z,12.30
2023-03-29T10:43:37.203Z,12.40
2023-03-29T10:46:31.481Z,12.10
2023-03-29T10:49:06.163Z,12.30
2023-03-29T10:51:34.692Z,12.30
2023-03-29T10:54:05.406Z,12.70
2023-03-29T10:56:41.699Z,12.10
2023-03-29T10:59:58.579Z,12.60
2023-03-29T11:02:45.332Z,12.60
2023-03-29T11:05:35.315Z,13.60
2023-03-29T11:08:33.787Z,12.60
2023-03-29T11:11:20.464Z,12.60
2023-03-29T11:14:31.327Z,12.50
2023-03-29T11:17:22.836Z,11.90
2023-03-29T11:20:26.364Z,12.20
2023-03-29T11:23:34.987Z,13.10
2023-03-29T11:26:14.588Z,13.10
2023-03-29T11:29:11.032Z,12.30
2023-03-29T11:32:01.040Z,13.00
2023-03-29T11:34:59.572Z,12.50
2023-03-29T11:38:15.142Z,12.50
2023-03-29T11:40:52.400Z,13.30
2023-03-29T11:46:05.200Z,13.00
2023-03-29T11:48:41.331Z,13.80
2023-03-29T11:51:23.540Z,13.30
2023-03-29T11:54:09.378Z,13.20
2023-03-29T11:57:02.097Z,12.60
2023-03-29T11:59:36.621Z,13.00
2023-03-29T12:03:00.925Z,13.20
2023-03-29T12:06:05.614Z,12.80
2023-03-29T12:08:40.823Z,13.40
2023-03-29T12:11:31.451Z,13.40
2023-03-29T12:14:28.209Z,14.00
2023-03-29T12:17:04.329Z,12.60
2023-03-29T12:20:01.371Z,13.80
2023-03-29T12:24:58.988Z,13.80
2023-03-29T12:27:40.595Z,13.40
2023-03-29T12:30:42.093Z,13.40
2023-03-29T12:33:34.518Z,13.40
2023-03-29T12:36:19.079Z,13.30
2023-03-29T12:41:24.999Z,13.30
2023-03-29T12:46:27.089Z,13.30
2023-03-29T12:48:59.356Z,13.40
2023-03-29T12:51:36.071Z,13.10
2023-03-29T12:54:11.672Z,13.10
2023-03-29T12:57:02.961Z,13.40
2023-03-29T12:59:45.147Z,13.60
2023-03-29T13:02:17.883Z,13.70
2023-03-29T13:04:56.102Z,13.70
2023-03-29T13:10:02.987Z,13.60
2023-03-29T13:12:42.652Z,13.60
2023-03-29T13:15:17.051Z,13.90
2023-03-29T13:17:57.500Z,13.90
2023-03-29T13:20:55.980Z,13.90
2023-03-29T13:23:42.029Z,13.60
2023-03-29T13:27:16.593Z,13.90
2023-03-29T13:33:10.761Z,14.00
2023-03-29T13:36:07.128Z,13.90
2023-03-29T13:38:48.771Z,13.60
2023-03-29T13:41:39.305Z,13.80
2023-03-29T13:44:46.267Z,13.80
2023-03-29T13:47:39.056Z,13.90
2023-03-29T13:50:19.084Z,13.90
2023-03-29T13:53:07.673Z,13.80
2023-03-29T13:55:49.673Z,13.80
2023-03-29T13:58:46.549Z,13.80
2023-03-29T14:01:45.467Z,13.90
2023-03-29T14:04:25.028Z,13.90
2023-03-29T14:06:56.834Z,14.50
2023-03-29T14:09:33.635Z,13.80
2023-03-29T14:12:02.917Z,14.80
2023-03-29T14:14:32.915Z,14.20
2023-03-29T14:17:02.757Z,14.30
2023-03-29T14:19:38.089Z,14.60
2023-03-29T14:22:15.684Z,13.90
2023-03-29T14:24:58.383Z,14.40
2023-03-29T14:32:31.904Z,14.60
2023-03-29T14:35:02.733Z,14.00
2023-03-29T14:37:31.647Z,14.50
2023-03-29T14:40:00.702Z,14.50
2023-03-29T14:42:30.479Z,14.50
2023-03-29T14:45:04.809Z,14.60
2023-03-29T14:47:34.750Z,14.60
2023-03-29T14:52:33.514Z,14.40
2023-03-29T14:55:04.201Z,14.40
2023-03-29T14:57:38.041Z,14.50
2023-03-29T15:00:26.583Z,14.50
2023-03-29T15:03:03.630Z,14.80
2023-03-29T15:06:04.407Z,14.50
2023-03-29T15:08:38.973Z,14.50
2023-03-29T15:11:34.062Z,14.70
2023-03-29T15:14:17.973Z,14.60
2023-03-29T15:16:48.303Z,14.50
2023-03-29T15:19:21.709Z,15.00
2023-03-29T15:21:53.085Z,14.60
2023-03-29T15:24:33.993Z,14.50
2023-03-29T15:27:16.042Z,14.60
2023-03-29T15:29:47.427Z,14.20
2023-03-29T15:32:34.109Z,14.10
2023-03-29T15:35:07.934Z,14.60
2023-03-29T15:47:35.645Z,14.20
2023-03-29T15:52:32.929Z,14.60
2023-03-29T15:57:30.447Z,14.60
2023-03-29T16:02:28.074Z,15.10
2023-03-29T16:17:20.026Z,13.20
2023-03-29T16:19:48.211Z,13.60
2023-03-29T16:24:44.897Z,13.90
2023-03-29T16:32:11.783Z,14.60
2023-03-29T16:54:31.755Z,12.80
2023-03-29T16:57:00.360Z,13.30
2023-03-29T17:04:25.642Z,12.30
2023-03-29T17:09:22.556Z,12.20
2023-03-29T17:11:51.250Z,12.80
2023-03-29T17:19:16.522Z,12.20
2023-03-29T17:21:45.286Z,12.40
2023-03-29T17:29:13.993Z,12.40
2023-03-29T17:34:17.557Z,12.30
2023-03-29T17:36:47.271Z,11.90
2023-03-29T17:39:18.852Z,12.10
2023-03-29T17:41:48.654Z,12.20
2023-03-29T17:44:17.080Z,11.70
2023-03-29T17:49:15.876Z,11.80
2023-03-29T17:59:11.213Z,11.50
2023-03-29T18:01:39.664Z,12.20
2023-03-29T18:11:36.389Z,12.10
2023-03-29T18:14:05.356Z,11.50
2023-03-29T18:19:02.270Z,12.20
2023-03-29T18:28:57.199Z,11.50
2023-03-29T18:36:25.305Z,12.00
2023-03-29T18:38:55.803Z,11.80
2023-03-29T18:41:25.000Z,11.30
2023-03-29T18:43:57.214Z,11.30
2023-03-29T19:01:23.628Z,11.70
2023-03-29T19:41:09.041Z,11.40
2023-03-29T19:46:11.694Z,11.40
2023-03-29T19:48:41.460Z,11.40
2023-03-29T19:56:10.993Z,11.40
2023-03-29T20:06:05.861Z,11.30
2023-03-29T20:16:13.773Z,11.30
2023-03-29T20:21:18.762Z,11.30
2023-03-29T20:36:13.609Z,11.10
2023-03-29T20:46:14.771Z,11.10
2023-03-29T21:11:14.183Z,10.90
2023-03-29T21:18:43.385Z,10.90
2023-03-29T21:21:14.684Z,10.90
2023-03-29T21:23:42.733Z,10.90
2023-03-29T21:31:10.237Z,8.40
2023-03-29T21:48:33.198Z,10.90
2023-03-29T21:58:27.705Z,10.90
2023-03-29T22:00:57.142Z,11.00
2023-03-29T22:06:03.082Z,11.00
2023-03-29T22:08:32.648Z,11.00
2023-03-29T22:11:08.955Z,11.10
2023-03-29T22:16:07.828Z,11.10
2023-03-29T22:18:43.605Z,11.10
2023-03-29T22:21:31.160Z,11.00
2023-03-29T22:24:02.379Z,11.20
2023-03-29T22:26:33.563Z,11.20
2023-03-29T22:29:02.774Z,11.20
2023-03-29T22:31:33.257Z,11.20
2023-03-29T22:36:33.149Z,11.20
2023-03-29T22:44:01.098Z,11.10
2023-03-29T23:06:19.055Z,10.70
2023-03-29T23:16:17.476Z,11.40
2023-03-29T23:18:45.600Z,11.00
2023-03-29T23:21:15.266Z,11.40
2023-03-29T23:31:14.148Z,11.40
2023-03-29T23:33:43.728Z,11.40
2023-03-29T23:36:18.882Z,11.40
2023-03-29T23:38:48.016Z,11.40
2023-03-29T23:41:17.742Z,10.90
2023-03-29T23:46:18.850Z,11.40
2023-03-29T23:48:49.364Z,11.40
2023-03-29T23:51:22.904Z,11.20
2023-03-29T23:53:51.760Z,11.30
2023-03-29T23:56:21.766Z,11.30
